AFR770A LFPG-TFFR
Flight info
| Callsign | AFR770A |
|---|---|
| Flight time | N/A |
| Altitude | 37000 |
| Route | LGL UT190 GODIX DCT DIDAK DCT AKEMO DCT RIVAK/M082F370 UN460 SIVIR DCT BERUX/N0471F370 DCT KOPAS/M083F380 DCT 40N020W 3630N03000W 32N040W/M083F400 26N050W DCT BNJEE/N0475F400 DCT BOSET BOSET2Z |
| Aircraft | B772/H-SDE2E3FGHIJ5LORVWXY/LB1D1 |
Departure
| Time | 2026-05-05 20:14 |
|---|---|
| Airport | Charles de Gaulle International Airport (LFPG) |
Arrival
| Time | N/A |
|---|---|
| Airport | Maryse Condé International Airport (TFFR) |
| Time | Latitude | Longitude | Altitude | Speed | Heading |
|---|---|---|---|---|---|
| 2026-05-05 19:51 | 49.00124 | 2.57528 | 359 ft | 0 kts | 357° |
| 2026-05-05 20:03 | 49.00103 | 2.57529 | 359 ft | 4 kts | 357° |
| 2026-05-05 20:03 | 49.00082 | 2.57530 | 359 ft | 4 kts | 358° |
| 2026-05-05 20:03 | 49.00059 | 2.57528 | 361 ft | 4 kts | 30° |
| 2026-05-05 20:03 | 49.00045 | 2.57501 | 365 ft | 4 kts | 86° |
| 2026-05-05 20:04 | 49.00046 | 2.57460 | 366 ft | 4 kts | 89° |
| 2026-05-05 20:04 | 49.00046 | 2.57449 | 366 ft | 0 kts | 85° |
| 2026-05-05 20:06 | 49.00048 | 2.57493 | 366 ft | 9 kts | 85° |
| 2026-05-05 20:06 | 49.00054 | 2.57586 | 360 ft | 9 kts | 85° |
| 2026-05-05 20:07 | 49.00060 | 2.57695 | 366 ft | 13 kts | 85° |
| 2026-05-05 20:07 | 49.00068 | 2.57829 | 363 ft | 13 kts | 84° |
| 2026-05-05 20:07 | 49.00077 | 2.57963 | 365 ft | 13 kts | 84° |
| 2026-05-05 20:07 | 49.00084 | 2.58095 | 364 ft | 13 kts | 86° |
| 2026-05-05 20:08 | 49.00090 | 2.58229 | 367 ft | 13 kts | 89° |
| 2026-05-05 20:08 | 49.00086 | 2.58272 | 366 ft | 0 kts | 106° |
| 2026-05-05 20:08 | 49.00060 | 2.58315 | 362 ft | 11 kts | 158° |
| 2026-05-05 20:09 | 49.00005 | 2.58252 | 366 ft | 12 kts | 259° |
| 2026-05-05 20:09 | 48.99996 | 2.58113 | 359 ft | 16 kts | 267° |
| 2026-05-05 20:09 | 48.99991 | 2.57936 | 364 ft | 17 kts | 268° |
| 2026-05-05 20:09 | 48.99983 | 2.57759 | 362 ft | 17 kts | 264° |
| 2026-05-05 20:10 | 48.99972 | 2.57583 | 365 ft | 17 kts | 265° |
| 2026-05-05 20:10 | 48.99962 | 2.57406 | 360 ft | 17 kts | 265° |
| 2026-05-05 20:10 | 48.99952 | 2.57230 | 363 ft | 17 kts | 265° |
| 2026-05-05 20:10 | 48.99943 | 2.57053 | 365 ft | 17 kts | 265° |
| 2026-05-05 20:11 | 48.99934 | 2.56877 | 359 ft | 17 kts | 265° |
| 2026-05-05 20:11 | 48.99925 | 2.56700 | 362 ft | 17 kts | 265° |
| 2026-05-05 20:11 | 48.99916 | 2.56523 | 366 ft | 17 kts | 265° |
| 2026-05-05 20:11 | 48.99906 | 2.56347 | 359 ft | 17 kts | 265° |
| 2026-05-05 20:12 | 48.99896 | 2.56170 | 359 ft | 17 kts | 265° |
| 2026-05-05 20:12 | 48.99889 | 2.55993 | 359 ft | 17 kts | 271° |
| 2026-05-05 20:12 | 48.99891 | 2.55833 | 359 ft | 15 kts | 244° |
| 2026-05-05 20:12 | 48.99806 | 2.55797 | 362 ft | 13 kts | 179° |
| 2026-05-05 20:13 | 48.99716 | 2.55809 | 360 ft | 13 kts | 174° |
| 2026-05-05 20:13 | 48.99627 | 2.55829 | 360 ft | 13 kts | 155° |
| 2026-05-05 20:13 | 48.99607 | 2.55958 | 358 ft | 16 kts | 86° |
| 2026-05-05 20:13 | 48.99631 | 2.56406 | 366 ft | 85 kts | 84° |
| 2026-05-05 20:14 | 48.99709 | 2.57757 | 364 ft | 169 kts | 85° |
| 2026-05-05 20:14 | 48.99754 | 2.59061 | 643 ft | 197 kts | 83° |
| 2026-05-05 20:14 | 48.99838 | 2.61164 | 1844 ft | 199 kts | 81° |
| 2026-05-05 20:14 | 48.99962 | 2.63339 | 2486 ft | 214 kts | 81° |
| 2026-05-05 20:15 | 49.00101 | 2.65672 | 2894 ft | 228 kts | 83° |
| 2026-05-05 20:15 | 49.00244 | 2.68132 | 3287 ft | 243 kts | 83° |
| 2026-05-05 20:15 | 49.00395 | 2.70768 | 3721 ft | 255 kts | 83° |
| 2026-05-05 20:15 | 49.00537 | 2.73493 | 4346 ft | 261 kts | 84° |
| 2026-05-05 20:16 | 49.00678 | 2.76280 | 4943 ft | 267 kts | 85° |
| 2026-05-05 20:16 | 49.00713 | 2.79111 | 5485 ft | 271 kts | 95° |
| 2026-05-05 20:16 | 49.00418 | 2.81967 | 6116 ft | 273 kts | 100° |
| 2026-05-05 20:16 | 49.00061 | 2.84820 | 6747 ft | 275 kts | 100° |
| 2026-05-05 20:17 | 48.99725 | 2.87704 | 7353 ft | 278 kts | 99° |
| 2026-05-05 20:17 | 48.99403 | 2.90621 | 7923 ft | 281 kts | 99° |
| 2026-05-05 20:17 | 48.99088 | 2.93568 | 8501 ft | 283 kts | 100° |
| 2026-05-05 20:17 | 48.98754 | 2.96527 | 9040 ft | 282 kts | 105° |
| 2026-05-05 20:18 | 48.97856 | 2.99165 | 9357 ft | 286 kts | 136° |
| 2026-05-05 20:18 | 48.96194 | 3.00735 | 9908 ft | 283 kts | 163° |
| 2026-05-05 20:18 | 48.94220 | 3.01081 | 10110 ft | 296 kts | 187° |
| 2026-05-05 20:18 | 48.92217 | 3.00118 | 10258 ft | 312 kts | 210° |
| 2026-05-05 20:19 | 48.90533 | 2.97926 | 10402 ft | 330 kts | 232° |
| 2026-05-05 20:19 | 48.89380 | 2.94846 | 10762 ft | 343 kts | 249° |
| 2026-05-05 20:19 | 48.88697 | 2.91322 | 11290 ft | 352 kts | 256° |
| 2026-05-05 20:19 | 48.88166 | 2.87666 | 12049 ft | 356 kts | 257° |
| 2026-05-05 20:20 | 48.87652 | 2.84030 | 12924 ft | 357 kts | 257° |
| 2026-05-05 20:20 | 48.87095 | 2.80288 | 13774 ft | 361 kts | 256° |
| 2026-05-05 20:20 | 48.86517 | 2.76624 | 14505 ft | 364 kts | 255° |
| 2026-05-05 20:20 | 48.85899 | 2.72864 | 15139 ft | 369 kts | 255° |
| 2026-05-05 20:21 | 48.85256 | 2.69061 | 15811 ft | 374 kts | 255° |
| 2026-05-05 20:21 | 48.84598 | 2.65224 | 16508 ft | 377 kts | 254° |
| 2026-05-05 20:21 | 48.83928 | 2.61354 | 17186 ft | 382 kts | 255° |
| 2026-05-05 20:21 | 48.83242 | 2.57413 | 17647 ft | 391 kts | 255° |
| 2026-05-05 20:22 | 48.82544 | 2.53397 | 18242 ft | 395 kts | 255° |
| 2026-05-05 20:22 | 48.81841 | 2.49361 | 18820 ft | 397 kts | 255° |
| 2026-05-05 20:22 | 48.81130 | 2.45294 | 19355 ft | 401 kts | 255° |
| 2026-05-05 20:22 | 48.80411 | 2.41186 | 19845 ft | 406 kts | 255° |
| 2026-05-05 20:23 | 48.79902 | 2.36981 | 20238 ft | 408 kts | 266° |
| 2026-05-05 20:23 | 48.79875 | 2.32638 | 20611 ft | 414 kts | 271° |
| 2026-05-05 20:23 | 48.79947 | 2.28247 | 21092 ft | 419 kts | 271° |
| 2026-05-05 20:23 | 48.80023 | 2.23810 | 21625 ft | 421 kts | 271° |
| 2026-05-05 20:24 | 48.80081 | 2.19358 | 22129 ft | 425 kts | 270° |
| 2026-05-05 20:24 | 48.80118 | 2.14858 | 22635 ft | 428 kts | 271° |
| 2026-05-05 20:24 | 48.80044 | 2.10313 | 23118 ft | 433 kts | 265° |
| 2026-05-05 20:24 | 48.79589 | 2.05776 | 23522 ft | 439 kts | 258° |
| 2026-05-05 20:25 | 48.78758 | 2.01321 | 23998 ft | 440 kts | 251° |
| 2026-05-05 20:25 | 48.77764 | 1.96935 | 24444 ft | 442 kts | 251° |
| 2026-05-05 20:25 | 48.76743 | 1.92533 | 24893 ft | 444 kts | 250° |
| 2026-05-05 20:25 | 48.75720 | 1.88114 | 25322 ft | 446 kts | 250° |
| 2026-05-05 20:26 | 48.74698 | 1.83650 | 25668 ft | 451 kts | 251° |
| 2026-05-05 20:26 | 48.73673 | 1.79131 | 25962 ft | 456 kts | 251° |
| 2026-05-05 20:26 | 48.72647 | 1.74568 | 26358 ft | 459 kts | 251° |
| 2026-05-05 20:26 | 48.71620 | 1.69983 | 26811 ft | 460 kts | 251° |
| 2026-05-05 20:27 | 48.70603 | 1.65440 | 27242 ft | 463 kts | 251° |
| 2026-05-05 20:27 | 48.69554 | 1.60754 | 27626 ft | 466 kts | 251° |
| 2026-05-05 20:27 | 48.68508 | 1.56095 | 27988 ft | 470 kts | 251° |
| 2026-05-05 20:27 | 48.67465 | 1.51460 | 28338 ft | 473 kts | 250° |
| 2026-05-05 20:28 | 48.66399 | 1.46737 | 28685 ft | 476 kts | 250° |
| 2026-05-05 20:28 | 48.65323 | 1.41978 | 29050 ft | 480 kts | 250° |
| 2026-05-05 20:28 | 48.64237 | 1.37193 | 29406 ft | 483 kts | 251° |
| 2026-05-05 20:28 | 48.63141 | 1.32375 | 29760 ft | 486 kts | 251° |
| 2026-05-05 20:29 | 48.62020 | 1.27455 | 29834 ft | 491 kts | 251° |
| 2026-05-05 20:29 | 48.59796 | 1.17716 | 29852 ft | 487 kts | 251° |
| 2026-05-05 20:30 | 48.57594 | 1.08127 | 29865 ft | 487 kts | 251° |
| 2026-05-05 20:30 | 48.55363 | 0.98456 | 29875 ft | 488 kts | 250° |
| 2026-05-05 20:31 | 48.53114 | 0.88751 | 30148 ft | 492 kts | 250° |
| 2026-05-05 20:31 | 48.51982 | 0.83881 | 30573 ft | 491 kts | 250° |
| 2026-05-05 20:31 | 48.50851 | 0.79026 | 30963 ft | 491 kts | 250° |
| 2026-05-05 20:31 | 48.49716 | 0.74166 | 31311 ft | 492 kts | 250° |
| 2026-05-05 20:32 | 48.48576 | 0.69297 | 31589 ft | 493 kts | 250° |
| 2026-05-05 20:32 | 48.47430 | 0.64413 | 31849 ft | 495 kts | 250° |
| 2026-05-05 20:32 | 48.46279 | 0.59515 | 32140 ft | 496 kts | 250° |
| 2026-05-05 20:32 | 48.45126 | 0.54623 | 32550 ft | 494 kts | 249° |
| 2026-05-05 20:33 | 48.43980 | 0.49770 | 33019 ft | 490 kts | 249° |
| 2026-05-05 20:33 | 48.42840 | 0.44953 | 33495 ft | 487 kts | 249° |
| 2026-05-05 20:33 | 48.41704 | 0.40161 | 33891 ft | 486 kts | 249° |
| 2026-05-05 20:34 | 48.39402 | 0.30495 | 33903 ft | 492 kts | 249° |
| 2026-05-05 20:34 | 48.37106 | 0.20886 | 33895 ft | 485 kts | 249° |
| 2026-05-05 20:35 | 48.34815 | 0.11344 | 33902 ft | 486 kts | 249° |
| 2026-05-05 20:35 | 48.32508 | 0.01778 | 33979 ft | 489 kts | 249° |
| 2026-05-05 20:35 | 48.31348 | -0.03014 | 34337 ft | 485 kts | 249° |
| 2026-05-05 20:36 | 48.30200 | -0.07755 | 34787 ft | 481 kts | 249° |
| 2026-05-05 20:36 | 48.29054 | -0.12475 | 35008 ft | 482 kts | 249° |
| 2026-05-05 20:36 | 48.27900 | -0.17218 | 35223 ft | 483 kts | 249° |
| 2026-05-05 20:36 | 48.26746 | -0.21937 | 35547 ft | 481 kts | 248° |
| 2026-05-05 20:37 | 48.25435 | -0.26550 | 35782 ft | 480 kts | 242° |
| 2026-05-05 20:37 | 48.23818 | -0.30941 | 35890 ft | 482 kts | 238° |
| 2026-05-05 20:37 | 48.22104 | -0.35275 | 35908 ft | 485 kts | 238° |
| 2026-05-05 20:38 | 48.18662 | -0.43938 | 35901 ft | 480 kts | 238° |
| 2026-05-05 20:38 | 48.15286 | -0.52502 | 35912 ft | 477 kts | 239° |
| 2026-05-05 20:39 | 48.11931 | -0.61055 | 35913 ft | 476 kts | 238° |
| 2026-05-05 20:39 | 48.08601 | -0.69532 | 35912 ft | 476 kts | 238° |
| 2026-05-05 20:40 | 48.05242 | -0.78054 | 35911 ft | 476 kts | 238° |
| 2026-05-05 20:40 | 48.01870 | -0.86583 | 35913 ft | 477 kts | 238° |
| 2026-05-05 20:41 | 47.98486 | -0.95111 | 35924 ft | 478 kts | 238° |
| 2026-05-05 20:41 | 47.95084 | -1.03656 | 35916 ft | 479 kts | 238° |
| 2026-05-05 20:42 | 47.91668 | -1.12209 | 35919 ft | 480 kts | 238° |
| 2026-05-05 20:42 | 47.88244 | -1.20755 | 35918 ft | 481 kts | 238° |
| 2026-05-05 20:43 | 47.84807 | -1.29309 | 35913 ft | 481 kts | 238° |
| 2026-05-05 20:43 | 47.81362 | -1.37853 | 35919 ft | 481 kts | 237° |
| 2026-05-05 20:44 | 47.77911 | -1.46386 | 35921 ft | 482 kts | 238° |
| 2026-05-05 20:44 | 47.74452 | -1.54912 | 35916 ft | 481 kts | 238° |
| 2026-05-05 20:45 | 47.69260 | -1.67662 | 35914 ft | 481 kts | 238° |
| 2026-05-05 20:45 | 47.65794 | -1.76136 | 35915 ft | 480 kts | 238° |
| 2026-05-05 20:46 | 47.62321 | -1.84602 | 35924 ft | 480 kts | 238° |
| 2026-05-05 20:46 | 47.58846 | -1.93049 | 35920 ft | 480 kts | 238° |
| 2026-05-05 20:47 | 47.55365 | -2.01482 | 35931 ft | 480 kts | 238° |
| 2026-05-05 20:47 | 47.51901 | -2.09847 | 35924 ft | 480 kts | 238° |
| 2026-05-05 20:48 | 47.48406 | -2.18262 | 35937 ft | 480 kts | 238° |
| 2026-05-05 20:48 | 47.44909 | -2.26659 | 35935 ft | 480 kts | 238° |
| 2026-05-05 20:49 | 47.41406 | -2.35042 | 35938 ft | 480 kts | 238° |
| 2026-05-05 20:49 | 47.37894 | -2.43421 | 35937 ft | 480 kts | 238° |
| 2026-05-05 20:50 | 47.34376 | -2.51788 | 35935 ft | 480 kts | 239° |
| 2026-05-05 20:50 | 47.30848 | -2.60155 | 35938 ft | 481 kts | 238° |
| 2026-05-05 20:51 | 47.27311 | -2.68517 | 35947 ft | 482 kts | 239° |
| 2026-05-05 20:51 | 47.23759 | -2.76888 | 35947 ft | 483 kts | 239° |
| 2026-05-05 20:52 | 47.20195 | -2.85265 | 35952 ft | 483 kts | 238° |
| 2026-05-05 20:52 | 47.16622 | -2.93639 | 35944 ft | 484 kts | 238° |
| 2026-05-05 20:53 | 47.13493 | -3.02366 | 35957 ft | 483 kts | 249° |
| 2026-05-05 20:53 | 47.11436 | -3.11749 | 35962 ft | 483 kts | 254° |
| 2026-05-05 20:54 | 47.09559 | -3.21233 | 35963 ft | 484 kts | 254° |
| 2026-05-05 20:54 | 47.07648 | -3.30713 | 35954 ft | 485 kts | 255° |
| 2026-05-05 20:55 | 47.05708 | -3.40192 | 35959 ft | 485 kts | 255° |
| 2026-05-05 20:55 | 47.03753 | -3.49670 | 35972 ft | 486 kts | 254° |
| 2026-05-05 20:56 | 47.01801 | -3.59084 | 35967 ft | 486 kts | 254° |
| 2026-05-05 20:56 | 46.99830 | -3.68549 | 35974 ft | 486 kts | 254° |
| 2026-05-05 20:57 | 46.97852 | -3.78007 | 35973 ft | 486 kts | 254° |
| 2026-05-05 20:57 | 46.95867 | -3.87462 | 35973 ft | 486 kts | 253° |
| 2026-05-05 20:58 | 46.93873 | -3.96910 | 35975 ft | 486 kts | 254° |
| 2026-05-05 20:58 | 46.91868 | -4.06367 | 35981 ft | 486 kts | 254° |
| 2026-05-05 20:59 | 46.89855 | -4.15811 | 35984 ft | 486 kts | 254° |
| 2026-05-05 20:59 | 46.87838 | -4.25238 | 35976 ft | 486 kts | 253° |
| 2026-05-05 21:00 | 46.85814 | -4.34655 | 35984 ft | 485 kts | 253° |
| 2026-05-05 21:00 | 46.83784 | -4.44056 | 35990 ft | 485 kts | 253° |
| 2026-05-05 21:01 | 46.81748 | -4.53442 | 35985 ft | 485 kts | 253° |
| 2026-05-05 21:01 | 46.79706 | -4.62811 | 35987 ft | 484 kts | 253° |
| 2026-05-05 21:02 | 46.78002 | -4.70598 | 35988 ft | 484 kts | 253° |
| 2026-05-05 21:02 | 46.75946 | -4.79955 | 35997 ft | 485 kts | 253° |
| 2026-05-05 21:03 | 46.74913 | -4.84643 | 36185 ft | 486 kts | 253° |
| 2026-05-05 21:03 | 46.73877 | -4.89331 | 36407 ft | 486 kts | 253° |
| 2026-05-05 21:03 | 46.72840 | -4.94015 | 36678 ft | 485 kts | 253° |
| 2026-05-05 21:03 | 46.71802 | -4.98688 | 36920 ft | 484 kts | 254° |
| 2026-05-05 21:04 | 46.69713 | -5.08071 | 37007 ft | 488 kts | 254° |
| 2026-05-05 21:04 | 46.67614 | -5.17455 | 36982 ft | 485 kts | 253° |
| 2026-05-05 21:05 | 46.65524 | -5.26754 | 36983 ft | 482 kts | 253° |
| 2026-05-05 21:05 | 46.63438 | -5.35999 | 36994 ft | 480 kts | 253° |
| 2026-05-05 21:06 | 46.61353 | -5.45203 | 36992 ft | 479 kts | 253° |
| 2026-05-05 21:06 | 46.59261 | -5.54399 | 37006 ft | 480 kts | 253° |
| 2026-05-05 21:07 | 46.57155 | -5.63612 | 37007 ft | 481 kts | 253° |
| 2026-05-05 21:07 | 46.55032 | -5.72862 | 37000 ft | 483 kts | 253° |
| 2026-05-05 21:08 | 46.52894 | -5.82135 | 37019 ft | 485 kts | 253° |
| 2026-05-05 21:08 | 46.50740 | -5.91440 | 37020 ft | 487 kts | 253° |
| 2026-05-05 21:09 | 46.48571 | -6.00767 | 37017 ft | 488 kts | 253° |
| 2026-05-05 21:09 | 46.46389 | -6.10106 | 37017 ft | 488 kts | 253° |
| 2026-05-05 21:10 | 46.44207 | -6.19413 | 37018 ft | 487 kts | 253° |
| 2026-05-05 21:10 | 46.42021 | -6.28691 | 37028 ft | 486 kts | 252° |
| 2026-05-05 21:11 | 46.39834 | -6.37939 | 37027 ft | 484 kts | 252° |
| 2026-05-05 21:11 | 46.37645 | -6.47153 | 37024 ft | 483 kts | 253° |
| 2026-05-05 21:12 | 46.35453 | -6.56345 | 37030 ft | 482 kts | 253° |
| 2026-05-05 21:12 | 46.33258 | -6.65509 | 37033 ft | 482 kts | 252° |
| 2026-05-05 21:13 | 46.31056 | -6.74667 | 37044 ft | 482 kts | 253° |
| 2026-05-05 21:13 | 46.28849 | -6.83808 | 37032 ft | 482 kts | 252° |
| 2026-05-05 21:14 | 46.26632 | -6.92949 | 37050 ft | 482 kts | 252° |
| 2026-05-05 21:14 | 46.24408 | -7.02086 | 37049 ft | 482 kts | 253° |
| 2026-05-05 21:15 | 46.22173 | -7.11226 | 37053 ft | 483 kts | 253° |
| 2026-05-05 21:15 | 46.19930 | -7.20367 | 37043 ft | 483 kts | 252° |
| 2026-05-05 21:16 | 46.17679 | -7.29501 | 37050 ft | 483 kts | 252° |
| 2026-05-05 21:16 | 46.15437 | -7.38558 | 37060 ft | 483 kts | 252° |
| 2026-05-05 21:17 | 46.13172 | -7.47676 | 37058 ft | 483 kts | 252° |
| 2026-05-05 21:17 | 46.10900 | -7.56788 | 37050 ft | 483 kts | 252° |
| 2026-05-05 21:18 | 46.08626 | -7.65868 | 37068 ft | 482 kts | 252° |
| 2026-05-05 21:18 | 46.06346 | -7.74935 | 37066 ft | 481 kts | 252° |
| 2026-05-05 21:19 | 46.04063 | -7.83985 | 37071 ft | 481 kts | 252° |
| 2026-05-05 21:19 | 46.01778 | -7.93017 | 37071 ft | 480 kts | 253° |
| 2026-05-05 21:20 | 46.00252 | -8.02283 | 37083 ft | 474 kts | 265° |
| 2026-05-05 21:20 | 45.99936 | -8.11705 | 37080 ft | 471 kts | 273° |
| 2026-05-05 21:21 | 46.00009 | -8.21118 | 37087 ft | 470 kts | 273° |
| 2026-05-05 21:21 | 46.00051 | -8.30534 | 37073 ft | 471 kts | 272° |
| 2026-05-05 21:22 | 46.00058 | -8.39945 | 37075 ft | 471 kts | 272° |
| 2026-05-05 21:22 | 46.00051 | -8.49371 | 37080 ft | 471 kts | 272° |
| 2026-05-05 21:23 | 46.00040 | -8.58794 | 37093 ft | 472 kts | 272° |
| 2026-05-05 21:23 | 46.00007 | -8.68225 | 37086 ft | 472 kts | 270° |
| 2026-05-05 21:24 | 45.99611 | -8.72858 | 37074 ft | 475 kts | 259° |
| 2026-05-05 21:24 | 45.98664 | -8.77419 | 37095 ft | 478 kts | 251° |
| 2026-05-05 21:24 | 45.95519 | -8.85851 | 37102 ft | 481 kts | 240° |
| 2026-05-05 21:25 | 45.91934 | -8.93969 | 37102 ft | 481 kts | 240° |
| 2026-05-05 21:25 | 45.88366 | -9.02102 | 37099 ft | 481 kts | 240° |
| 2026-05-05 21:26 | 45.84826 | -9.10259 | 37089 ft | 481 kts | 240° |
| 2026-05-05 21:26 | 45.81301 | -9.18406 | 37103 ft | 480 kts | 240° |
| 2026-05-05 21:27 | 45.77781 | -9.26524 | 37100 ft | 479 kts | 240° |
| 2026-05-05 21:27 | 45.74260 | -9.34613 | 37109 ft | 478 kts | 240° |
| 2026-05-05 21:28 | 45.70734 | -9.42689 | 37106 ft | 478 kts | 240° |
| 2026-05-05 21:28 | 45.67212 | -9.50731 | 37102 ft | 477 kts | 240° |
| 2026-05-05 21:29 | 45.63691 | -9.58748 | 37118 ft | 476 kts | 240° |
| 2026-05-05 21:29 | 45.60165 | -9.66755 | 37117 ft | 476 kts | 240° |
| 2026-05-05 21:30 | 45.56640 | -9.74736 | 37123 ft | 476 kts | 240° |
| 2026-05-05 21:30 | 45.53106 | -9.82714 | 37120 ft | 475 kts | 240° |
| 2026-05-05 21:31 | 45.49570 | -9.90676 | 37123 ft | 475 kts | 240° |
| 2026-05-05 21:31 | 45.46026 | -9.98632 | 37122 ft | 475 kts | 240° |
| 2026-05-05 21:32 | 45.42480 | -10.06571 | 37125 ft | 475 kts | 240° |
| 2026-05-05 21:32 | 45.38929 | -10.14500 | 37123 ft | 475 kts | 240° |
| 2026-05-05 21:33 | 45.35372 | -10.22418 | 37131 ft | 475 kts | 240° |
| 2026-05-05 21:33 | 45.31811 | -10.30324 | 37133 ft | 475 kts | 240° |
| 2026-05-05 21:34 | 45.28268 | -10.38166 | 37130 ft | 475 kts | 240° |
| 2026-05-05 21:34 | 45.24701 | -10.46043 | 37131 ft | 474 kts | 240° |
| 2026-05-05 21:35 | 45.21130 | -10.53904 | 37137 ft | 474 kts | 240° |
| 2026-05-05 21:35 | 45.17556 | -10.61753 | 37140 ft | 474 kts | 239° |
| 2026-05-05 21:36 | 45.13979 | -10.69585 | 37141 ft | 473 kts | 239° |
| 2026-05-05 21:36 | 45.10395 | -10.77412 | 37141 ft | 473 kts | 239° |
| 2026-05-05 21:37 | 45.06812 | -10.85216 | 37145 ft | 473 kts | 239° |
| 2026-05-05 21:37 | 45.03225 | -10.93009 | 37149 ft | 472 kts | 239° |
| 2026-05-05 21:38 | 44.99636 | -11.00781 | 37150 ft | 472 kts | 239° |